sensor_id;sensor_type;location;lat;lon;timestamp;P1;durP1;ratioP1;P2;durP2;ratioP2
5521;SDS011;2783;48.730;8.006;2024-03-02T00:02:07;0.90;;;0.90;;
5521;SDS011;2783;48.730;8.006;2024-03-02T00:04:33;1.00;;;1.00;;
5521;SDS011;2783;48.730;8.006;2024-03-02T00:06:58;0.90;;;0.90;;
5521;SDS011;2783;48.730;8.006;2024-03-02T00:09:24;0.90;;;0.90;;
5521;SDS011;2783;48.730;8.006;2024-03-02T00:11:50;1.00;;;1.00;;
5521;SDS011;2783;48.730;8.006;2024-03-02T00:14:16;0.90;;;0.90;;
5521;SDS011;2783;48.730;8.006;2024-03-02T00:16:41;0.90;;;0.90;;
5521;SDS011;2783;48.730;8.006;2024-03-02T00:19:07;0.90;;;0.90;;
5521;SDS011;2783;48.730;8.006;2024-03-02T00:21:34;0.90;;;0.90;;
5521;SDS011;2783;48.730;8.006;2024-03-02T00:24:00;1.00;;;1.00;;
5521;SDS011;2783;48.730;8.006;2024-03-02T00:26:32;0.82;;;0.82;;
5521;SDS011;2783;48.730;8.006;2024-03-02T00:28:57;0.98;;;0.98;;
5521;SDS011;2783;48.730;8.006;2024-03-02T00:31:25;0.80;;;0.80;;
5521;SDS011;2783;48.730;8.006;2024-03-02T00:33:51;1.00;;;1.00;;
5521;SDS011;2783;48.730;8.006;2024-03-02T00:36:21;0.90;;;0.90;;
5521;SDS011;2783;48.730;8.006;2024-03-02T00:38:50;1.10;;;1.10;;
5521;SDS011;2783;48.730;8.006;2024-03-02T00:44:00;0.90;;;0.90;;
5521;SDS011;2783;48.730;8.006;2024-03-02T00:46:34;1.00;;;1.00;;
5521;SDS011;2783;48.730;8.006;2024-03-02T00:49:01;0.90;;;0.90;;
5521;SDS011;2783;48.730;8.006;2024-03-02T00:51:32;0.90;;;0.90;;
5521;SDS011;2783;48.730;8.006;2024-03-02T00:54:00;0.90;;;0.90;;
5521;SDS011;2783;48.730;8.006;2024-03-02T00:56:29;1.00;;;1.00;;
5521;SDS011;2783;48.730;8.006;2024-03-02T00:58:55;1.00;;;1.00;;
5521;SDS011;2783;48.730;8.006;2024-03-02T01:01:21;0.90;;;0.90;;
5521;SDS011;2783;48.730;8.006;2024-03-02T01:03:46;1.00;;;1.00;;
5521;SDS011;2783;48.730;8.006;2024-03-02T01:06:12;1.00;;;1.00;;
5521;SDS011;2783;48.730;8.006;2024-03-02T01:08:38;1.10;;;1.10;;
5521;SDS011;2783;48.730;8.006;2024-03-02T01:11:04;0.93;;;0.93;;
5521;SDS011;2783;48.730;8.006;2024-03-02T01:13:30;0.88;;;0.88;;
5521;SDS011;2783;48.730;8.006;2024-03-02T01:15:56;0.93;;;0.93;;
5521;SDS011;2783;48.730;8.006;2024-03-02T01:18:22;1.00;;;1.00;;
5521;SDS011;2783;48.730;8.006;2024-03-02T01:20:48;1.00;;;1.00;;
5521;SDS011;2783;48.730;8.006;2024-03-02T01:23:16;1.00;;;1.00;;
5521;SDS011;2783;48.730;8.006;2024-03-02T01:25:43;1.00;;;1.00;;
5521;SDS011;2783;48.730;8.006;2024-03-02T01:28:08;1.00;;;1.00;;
5521;SDS011;2783;48.730;8.006;2024-03-02T01:30:34;1.10;;;1.10;;
5521;SDS011;2783;48.730;8.006;2024-03-02T01:33:00;1.00;;;1.00;;
5521;SDS011;2783;48.730;8.006;2024-03-02T01:35:25;0.98;;;0.98;;
5521;SDS011;2783;48.730;8.006;2024-03-02T01:37:51;0.90;;;0.90;;
5521;SDS011;2783;48.730;8.006;2024-03-02T01:40:17;1.08;;;1.08;;
5521;SDS011;2783;48.730;8.006;2024-03-02T01:42:42;0.80;;;0.80;;
5521;SDS011;2783;48.730;8.006;2024-03-02T01:45:08;1.10;;;1.10;;
5521;SDS011;2783;48.730;8.006;2024-03-02T01:47:34;1.10;;;1.10;;
5521;SDS011;2783;48.730;8.006;2024-03-02T01:50:00;0.98;;;0.98;;
5521;SDS011;2783;48.730;8.006;2024-03-02T01:52:26;0.90;;;0.90;;
5521;SDS011;2783;48.730;8.006;2024-03-02T01:54:52;1.10;;;1.10;;
5521;SDS011;2783;48.730;8.006;2024-03-02T01:57:18;1.00;;;1.00;;
5521;SDS011;2783;48.730;8.006;2024-03-02T01:59:44;0.90;;;0.90;;
5521;SDS011;2783;48.730;8.006;2024-03-02T02:02:10;1.00;;;1.00;;
5521;SDS011;2783;48.730;8.006;2024-03-02T02:04:35;1.00;;;1.00;;
5521;SDS011;2783;48.730;8.006;2024-03-02T02:07:01;1.00;;;1.00;;
5521;SDS011;2783;48.730;8.006;2024-03-02T02:09:26;1.02;;;1.02;;
5521;SDS011;2783;48.730;8.006;2024-03-02T02:11:52;1.00;;;1.00;;
5521;SDS011;2783;48.730;8.006;2024-03-02T02:14:17;1.10;;;1.10;;
5521;SDS011;2783;48.730;8.006;2024-03-02T02:16:43;0.90;;;0.90;;
5521;SDS011;2783;48.730;8.006;2024-03-02T02:19:09;0.90;;;0.90;;
5521;SDS011;2783;48.730;8.006;2024-03-02T02:21:34;0.90;;;0.90;;
5521;SDS011;2783;48.730;8.006;2024-03-02T02:24:00;0.95;;;0.95;;
5521;SDS011;2783;48.730;8.006;2024-03-02T02:26:28;0.90;;;0.90;;
5521;SDS011;2783;48.730;8.006;2024-03-02T02:28:53;1.00;;;1.00;;
5521;SDS011;2783;48.730;8.006;2024-03-02T02:31:18;1.00;;;1.00;;
5521;SDS011;2783;48.730;8.006;2024-03-02T02:33:44;0.90;;;0.90;;
5521;SDS011;2783;48.730;8.006;2024-03-02T02:36:09;1.00;;;1.00;;
5521;SDS011;2783;48.730;8.006;2024-03-02T02:38:38;0.90;;;0.90;;
5521;SDS011;2783;48.730;8.006;2024-03-02T02:41:06;1.08;;;1.08;;
5521;SDS011;2783;48.730;8.006;2024-03-02T02:43:32;1.00;;;1.00;;
5521;SDS011;2783;48.730;8.006;2024-03-02T02:45:58;1.10;;;1.10;;
5521;SDS011;2783;48.730;8.006;2024-03-02T02:48:23;0.93;;;0.93;;
5521;SDS011;2783;48.730;8.006;2024-03-02T02:50:48;1.00;;;1.00;;
5521;SDS011;2783;48.730;8.006;2024-03-02T02:53:14;1.00;;;1.00;;
5521;SDS011;2783;48.730;8.006;2024-03-02T02:55:39;0.90;;;0.90;;
5521;SDS011;2783;48.730;8.006;2024-03-02T02:58:11;1.00;;;1.00;;
5521;SDS011;2783;48.730;8.006;2024-03-02T03:00:38;1.20;;;1.20;;
5521;SDS011;2783;48.730;8.006;2024-03-02T03:03:08;1.00;;;1.00;;
5521;SDS011;2783;48.730;8.006;2024-03-02T03:05:34;1.00;;;1.00;;
5521;SDS011;2783;48.730;8.006;2024-03-02T03:07:59;1.00;;;1.00;;
5521;SDS011;2783;48.730;8.006;2024-03-02T03:10:25;1.10;;;1.10;;
5521;SDS011;2783;48.730;8.006;2024-03-02T03:12:52;1.10;;;1.10;;
5521;SDS011;2783;48.730;8.006;2024-03-02T03:15:18;1.02;;;1.02;;
5521;SDS011;2783;48.730;8.006;2024-03-02T03:17:43;1.10;;;1.10;;
5521;SDS011;2783;48.730;8.006;2024-03-02T03:20:10;1.00;;;1.00;;
5521;SDS011;2783;48.730;8.006;2024-03-02T03:22:36;1.10;;;1.10;;
5521;SDS011;2783;48.730;8.006;2024-03-02T03:25:02;1.00;;;1.00;;
5521;SDS011;2783;48.730;8.006;2024-03-02T03:27:28;1.00;;;1.00;;
5521;SDS011;2783;48.730;8.006;2024-03-02T03:29:54;1.00;;;1.00;;
5521;SDS011;2783;48.730;8.006;2024-03-02T03:32:19;1.10;;;1.10;;
5521;SDS011;2783;48.730;8.006;2024-03-02T03:34:45;1.10;;;1.10;;
5521;SDS011;2783;48.730;8.006;2024-03-02T03:37:10;1.00;;;1.00;;
5521;SDS011;2783;48.730;8.006;2024-03-02T03:39:36;0.98;;;0.98;;
5521;SDS011;2783;48.730;8.006;2024-03-02T03:42:02;1.00;;;1.00;;
5521;SDS011;2783;48.730;8.006;2024-03-02T03:44:28;1.10;;;1.10;;
5521;SDS011;2783;48.730;8.006;2024-03-02T03:46:53;1.00;;;1.00;;
5521;SDS011;2783;48.730;8.006;2024-03-02T03:49:19;1.08;;;1.08;;
5521;SDS011;2783;48.730;8.006;2024-03-02T03:51:44;1.00;;;1.00;;
5521;SDS011;2783;48.730;8.006;2024-03-02T03:54:09;1.00;;;1.00;;
5521;SDS011;2783;48.730;8.006;2024-03-02T03:56:36;1.10;;;1.10;;
5521;SDS011;2783;48.730;8.006;2024-03-02T03:59:01;1.10;;;1.10;;
5521;SDS011;2783;48.730;8.006;2024-03-02T04:01:27;1.10;;;1.10;;
5521;SDS011;2783;48.730;8.006;2024-03-02T04:03:53;1.10;;;1.10;;
5521;SDS011;2783;48.730;8.006;2024-03-02T04:06:18;1.00;;;1.00;;
5521;SDS011;2783;48.730;8.006;2024-03-02T04:08:44;1.10;;;1.10;;
5521;SDS011;2783;48.730;8.006;2024-03-02T04:11:10;1.00;;;1.00;;
5521;SDS011;2783;48.730;8.006;2024-03-02T04:13:35;1.10;;;1.10;;
5521;SDS011;2783;48.730;8.006;2024-03-02T04:16:01;1.10;;;1.10;;
5521;SDS011;2783;48.730;8.006;2024-03-02T04:18:26;1.10;;;1.10;;
5521;SDS011;2783;48.730;8.006;2024-03-02T04:20:52;0.88;;;0.88;;
5521;SDS011;2783;48.730;8.006;2024-03-02T04:23:17;1.10;;;1.10;;
5521;SDS011;2783;48.730;8.006;2024-03-02T04:25:42;1.05;;;1.05;;
5521;SDS011;2783;48.730;8.006;2024-03-02T04:28:08;1.10;;;1.10;;
5521;SDS011;2783;48.730;8.006;2024-03-02T04:30:33;1.13;;;1.13;;
5521;SDS011;2783;48.730;8.006;2024-03-02T04:32:58;1.10;;;1.10;;
5521;SDS011;2783;48.730;8.006;2024-03-02T04:35:24;1.02;;;1.02;;
5521;SDS011;2783;48.730;8.006;2024-03-02T04:37:50;1.13;;;1.13;;
5521;SDS011;2783;48.730;8.006;2024-03-02T04:40:16;1.10;;;1.10;;
5521;SDS011;2783;48.730;8.006;2024-03-02T04:42:41;1.10;;;1.10;;
5521;SDS011;2783;48.730;8.006;2024-03-02T04:45:07;1.00;;;1.00;;
5521;SDS011;2783;48.730;8.006;2024-03-02T04:47:32;1.10;;;1.10;;
5521;SDS011;2783;48.730;8.006;2024-03-02T04:49:58;1.10;;;1.10;;
5521;SDS011;2783;48.730;8.006;2024-03-02T04:52:23;1.10;;;1.10;;
5521;SDS011;2783;48.730;8.006;2024-03-02T04:54:48;1.17;;;1.17;;
5521;SDS011;2783;48.730;8.006;2024-03-02T04:57:32;1.20;;;1.20;;
5521;SDS011;2783;48.730;8.006;2024-03-02T04:59:58;1.00;;;1.00;;
5521;SDS011;2783;48.730;8.006;2024-03-02T05:02:23;1.10;;;1.10;;
5521;SDS011;2783;48.730;8.006;2024-03-02T05:04:49;1.10;;;1.10;;
5521;SDS011;2783;48.730;8.006;2024-03-02T05:07:14;1.05;;;1.05;;
5521;SDS011;2783;48.730;8.006;2024-03-02T05:09:40;0.98;;;0.98;;
5521;SDS011;2783;48.730;8.006;2024-03-02T05:12:05;1.15;;;1.15;;
5521;SDS011;2783;48.730;8.006;2024-03-02T05:14:49;1.10;;;1.10;;
5521;SDS011;2783;48.730;8.006;2024-03-02T05:17:14;1.00;;;1.00;;
5521;SDS011;2783;48.730;8.006;2024-03-02T05:19:40;1.30;;;1.30;;
5521;SDS011;2783;48.730;8.006;2024-03-02T05:22:05;1.20;;;1.20;;
5521;SDS011;2783;48.730;8.006;2024-03-02T05:24:31;1.20;;;1.20;;
5521;SDS011;2783;48.730;8.006;2024-03-02T05:26:56;1.10;;;1.10;;
5521;SDS011;2783;48.730;8.006;2024-03-02T05:29:22;1.10;;;1.10;;
5521;SDS011;2783;48.730;8.006;2024-03-02T05:31:47;1.20;;;1.20;;
5521;SDS011;2783;48.730;8.006;2024-03-02T05:34:13;1.10;;;1.10;;
5521;SDS011;2783;48.730;8.006;2024-03-02T05:36:39;1.20;;;1.20;;
5521;SDS011;2783;48.730;8.006;2024-03-02T05:39:05;1.10;;;1.10;;
5521;SDS011;2783;48.730;8.006;2024-03-02T05:41:35;1.00;;;1.00;;
5521;SDS011;2783;48.730;8.006;2024-03-02T05:44:00;0.90;;;0.90;;
5521;SDS011;2783;48.730;8.006;2024-03-02T05:46:26;1.10;;;1.10;;
5521;SDS011;2783;48.730;8.006;2024-03-02T05:48:52;1.15;;;1.15;;
5521;SDS011;2783;48.730;8.006;2024-03-02T05:51:17;1.10;;;1.10;;
5521;SDS011;2783;48.730;8.006;2024-03-02T05:53:43;1.10;;;1.10;;
5521;SDS011;2783;48.730;8.006;2024-03-02T05:56:08;1.00;;;1.00;;
5521;SDS011;2783;48.730;8.006;2024-03-02T05:58:34;1.00;;;1.00;;
5521;SDS011;2783;48.730;8.006;2024-03-02T06:01:26;1.00;;;1.00;;
5521;SDS011;2783;48.730;8.006;2024-03-02T06:03:54;1.05;;;1.05;;
5521;SDS011;2783;48.730;8.006;2024-03-02T06:06:20;1.00;;;1.00;;
5521;SDS011;2783;48.730;8.006;2024-03-02T06:08:46;0.98;;;0.98;;
5521;SDS011;2783;48.730;8.006;2024-03-02T06:11:11;1.10;;;1.10;;
5521;SDS011;2783;48.730;8.006;2024-03-02T06:13:36;1.10;;;1.10;;
5521;SDS011;2783;48.730;8.006;2024-03-02T06:16:02;1.00;;;1.00;;
5521;SDS011;2783;48.730;8.006;2024-03-02T06:18:27;1.20;;;1.20;;
5521;SDS011;2783;48.730;8.006;2024-03-02T06:20:53;1.10;;;1.10;;
5521;SDS011;2783;48.730;8.006;2024-03-02T06:23:18;1.10;;;1.10;;
5521;SDS011;2783;48.730;8.006;2024-03-02T06:25:44;1.10;;;1.10;;
5521;SDS011;2783;48.730;8.006;2024-03-02T06:28:09;1.02;;;1.02;;
5521;SDS011;2783;48.730;8.006;2024-03-02T06:30:34;1.05;;;1.05;;
5521;SDS011;2783;48.730;8.006;2024-03-02T06:33:00;1.00;;;1.00;;
5521;SDS011;2783;48.730;8.006;2024-03-02T06:35:25;1.10;;;1.10;;
5521;SDS011;2783;48.730;8.006;2024-03-02T06:37:51;1.10;;;1.10;;
5521;SDS011;2783;48.730;8.006;2024-03-02T06:40:16;1.10;;;1.10;;
5521;SDS011;2783;48.730;8.006;2024-03-02T06:42:42;1.10;;;1.10;;
5521;SDS011;2783;48.730;8.006;2024-03-02T06:45:07;1.20;;;1.20;;
5521;SDS011;2783;48.730;8.006;2024-03-02T06:47:33;1.20;;;1.20;;
5521;SDS011;2783;48.730;8.006;2024-03-02T06:49:58;1.02;;;1.02;;
5521;SDS011;2783;48.730;8.006;2024-03-02T06:52:24;1.00;;;1.00;;
5521;SDS011;2783;48.730;8.006;2024-03-02T06:54:49;1.00;;;1.00;;
5521;SDS011;2783;48.730;8.006;2024-03-02T06:57:15;1.10;;;1.10;;
5521;SDS011;2783;48.730;8.006;2024-03-02T06:59:42;1.05;;;1.05;;
5521;SDS011;2783;48.730;8.006;2024-03-02T07:02:07;1.10;;;1.10;;
5521;SDS011;2783;48.730;8.006;2024-03-02T07:04:33;1.00;;;1.00;;
5521;SDS011;2783;48.730;8.006;2024-03-02T07:06:59;1.00;;;1.00;;
5521;SDS011;2783;48.730;8.006;2024-03-02T07:09:24;1.00;;;1.00;;
5521;SDS011;2783;48.730;8.006;2024-03-02T07:11:50;1.00;;;1.00;;
5521;SDS011;2783;48.730;8.006;2024-03-02T07:14:16;0.90;;;0.90;;
5521;SDS011;2783;48.730;8.006;2024-03-02T07:16:41;0.95;;;0.95;;
5521;SDS011;2783;48.730;8.006;2024-03-02T07:19:08;1.00;;;1.00;;
5521;SDS011;2783;48.730;8.006;2024-03-02T07:21:34;0.90;;;0.90;;
5521;SDS011;2783;48.730;8.006;2024-03-02T07:23:59;0.80;;;0.80;;
5521;SDS011;2783;48.730;8.006;2024-03-02T07:26:27;0.90;;;0.90;;
5521;SDS011;2783;48.730;8.006;2024-03-02T07:28:55;0.80;;;0.80;;
5521;SDS011;2783;48.730;8.006;2024-03-02T07:31:20;0.70;;;0.70;;
5521;SDS011;2783;48.730;8.006;2024-03-02T07:33:46;0.80;;;0.80;;
5521;SDS011;2783;48.730;8.006;2024-03-02T07:36:11;0.70;;;0.70;;
5521;SDS011;2783;48.730;8.006;2024-03-02T07:38:37;0.70;;;0.70;;
5521;SDS011;2783;48.730;8.006;2024-03-02T07:41:03;0.70;;;0.70;;
5521;SDS011;2783;48.730;8.006;2024-03-02T07:43:29;0.70;;;0.70;;
5521;SDS011;2783;48.730;8.006;2024-03-02T07:45:56;0.68;;;0.68;;
5521;SDS011;2783;48.730;8.006;2024-03-02T07:48:22;0.70;;;0.70;;
5521;SDS011;2783;48.730;8.006;2024-03-02T07:50:48;0.70;;;0.70;;
5521;SDS011;2783;48.730;8.006;2024-03-02T07:53:13;0.70;;;0.70;;
5521;SDS011;2783;48.730;8.006;2024-03-02T07:55:39;0.70;;;0.70;;
5521;SDS011;2783;48.730;8.006;2024-03-02T07:58:05;0.60;;;0.60;;
5521;SDS011;2783;48.730;8.006;2024-03-02T08:00:31;0.70;;;0.70;;
5521;SDS011;2783;48.730;8.006;2024-03-02T08:02:57;0.60;;;0.60;;
5521;SDS011;2783;48.730;8.006;2024-03-02T08:05:22;0.60;;;0.60;;
5521;SDS011;2783;48.730;8.006;2024-03-02T08:07:48;0.60;;;0.60;;
5521;SDS011;2783;48.730;8.006;2024-03-02T08:10:17;0.60;;;0.60;;
5521;SDS011;2783;48.730;8.006;2024-03-02T08:12:43;0.50;;;0.50;;
5521;SDS011;2783;48.730;8.006;2024-03-02T08:15:08;0.50;;;0.50;;
5521;SDS011;2783;48.730;8.006;2024-03-02T08:17:33;0.50;;;0.50;;
5521;SDS011;2783;48.730;8.006;2024-03-02T08:19:59;0.50;;;0.50;;
5521;SDS011;2783;48.730;8.006;2024-03-02T08:22:24;0.45;;;0.45;;
5521;SDS011;2783;48.730;8.006;2024-03-02T08:24:53;0.50;;;0.50;;
5521;SDS011;2783;48.730;8.006;2024-03-02T08:27:19;0.30;;;0.30;;
5521;SDS011;2783;48.730;8.006;2024-03-02T08:29:45;0.40;;;0.40;;
5521;SDS011;2783;48.730;8.006;2024-03-02T08:32:10;0.40;;;0.40;;
5521;SDS011;2783;48.730;8.006;2024-03-02T08:34:36;0.40;;;0.40;;
5521;SDS011;2783;48.730;8.006;2024-03-02T08:37:01;0.50;;;0.50;;
5521;SDS011;2783;48.730;8.006;2024-03-02T08:39:27;0.40;;;0.40;;
5521;SDS011;2783;48.730;8.006;2024-03-02T08:41:53;0.40;;;0.40;;
5521;SDS011;2783;48.730;8.006;2024-03-02T08:44:19;0.40;;;0.40;;
5521;SDS011;2783;48.730;8.006;2024-03-02T08:46:45;0.40;;;0.40;;
5521;SDS011;2783;48.730;8.006;2024-03-02T08:49:10;0.30;;;0.30;;
5521;SDS011;2783;48.730;8.006;2024-03-02T08:51:36;0.40;;;0.40;;
5521;SDS011;2783;48.730;8.006;2024-03-02T08:54:01;0.40;;;0.40;;
5521;SDS011;2783;48.730;8.006;2024-03-02T08:56:26;0.40;;;0.40;;
5521;SDS011;2783;48.730;8.006;2024-03-02T08:58:52;0.35;;;0.35;;
5521;SDS011;2783;48.730;8.006;2024-03-02T09:01:18;0.30;;;0.30;;
5521;SDS011;2783;48.730;8.006;2024-03-02T09:03:44;0.40;;;0.40;;
5521;SDS011;2783;48.730;8.006;2024-03-02T09:06:13;0.40;;;0.40;;
5521;SDS011;2783;48.730;8.006;2024-03-02T09:08:41;0.40;;;0.40;;
5521;SDS011;2783;48.730;8.006;2024-03-02T09:11:08;0.30;;;0.30;;
5521;SDS011;2783;48.730;8.006;2024-03-02T09:13:33;0.40;;;0.40;;
5521;SDS011;2783;48.730;8.006;2024-03-02T09:15:59;0.40;;;0.40;;
5521;SDS011;2783;48.730;8.006;2024-03-02T09:18:25;0.30;;;0.30;;
5521;SDS011;2783;48.730;8.006;2024-03-02T09:20:50;0.30;;;0.30;;
5521;SDS011;2783;48.730;8.006;2024-03-02T09:23:15;0.30;;;0.30;;
5521;SDS011;2783;48.730;8.006;2024-03-02T09:25:41;0.30;;;0.30;;
5521;SDS011;2783;48.730;8.006;2024-03-02T09:28:06;0.30;;;0.30;;
5521;SDS011;2783;48.730;8.006;2024-03-02T09:30:32;0.28;;;0.28;;
5521;SDS011;2783;48.730;8.006;2024-03-02T09:32:58;0.30;;;0.30;;
5521;SDS011;2783;48.730;8.006;2024-03-02T09:35:24;0.30;;;0.30;;
5521;SDS011;2783;48.730;8.006;2024-03-02T09:37:49;0.20;;;0.20;;
5521;SDS011;2783;48.730;8.006;2024-03-02T09:40:14;0.20;;;0.20;;
5521;SDS011;2783;48.730;8.006;2024-03-02T09:42:41;0.30;;;0.30;;
5521;SDS011;2783;48.730;8.006;2024-03-02T09:45:07;0.30;;;0.30;;
5521;SDS011;2783;48.730;8.006;2024-03-02T09:47:33;0.30;;;0.30;;
5521;SDS011;2783;48.730;8.006;2024-03-02T09:49:58;0.20;;;0.20;;
5521;SDS011;2783;48.730;8.006;2024-03-02T09:52:24;0.30;;;0.30;;
5521;SDS011;2783;48.730;8.006;2024-03-02T09:54:50;0.30;;;0.30;;
5521;SDS011;2783;48.730;8.006;2024-03-02T09:57:15;0.25;;;0.25;;
5521;SDS011;2783;48.730;8.006;2024-03-02T09:59:40;0.30;;;0.30;;
5521;SDS011;2783;48.730;8.006;2024-03-02T10:02:06;0.30;;;0.30;;
5521;SDS011;2783;48.730;8.006;2024-03-02T10:04:32;0.30;;;0.30;;
5521;SDS011;2783;48.730;8.006;2024-03-02T10:07:14;0.30;;;0.30;;
5521;SDS011;2783;48.730;8.006;2024-03-02T10:09:41;0.30;;;0.30;;
5521;SDS011;2783;48.730;8.006;2024-03-02T10:12:09;0.30;;;0.30;;
5521;SDS011;2783;48.730;8.006;2024-03-02T10:14:36;0.20;;;0.20;;
5521;SDS011;2783;48.730;8.006;2024-03-02T10:17:03;0.20;;;0.20;;
5521;SDS011;2783;48.730;8.006;2024-03-02T10:19:29;0.10;;;0.10;;
5521;SDS011;2783;48.730;8.006;2024-03-02T10:22:04;0.30;;;0.30;;
5521;SDS011;2783;48.730;8.006;2024-03-02T10:24:40;0.10;;;0.10;;
5521;SDS011;2783;48.730;8.006;2024-03-02T10:27:11;0.20;;;0.20;;
5521;SDS011;2783;48.730;8.006;2024-03-02T10:29:41;0.20;;;0.20;;
5521;SDS011;2783;48.730;8.006;2024-03-02T10:32:10;0.20;;;0.20;;
5521;SDS011;2783;48.730;8.006;2024-03-02T10:34:36;0.20;;;0.20;;
5521;SDS011;2783;48.730;8.006;2024-03-02T10:37:03;0.20;;;0.20;;
5521;SDS011;2783;48.730;8.006;2024-03-02T10:39:28;0.20;;;0.20;;
5521;SDS011;2783;48.730;8.006;2024-03-02T10:41:55;0.20;;;0.20;;
5521;SDS011;2783;48.730;8.006;2024-03-02T10:44:22;0.20;;;0.20;;
5521;SDS011;2783;48.730;8.006;2024-03-02T10:46:48;0.20;;;0.20;;
5521;SDS011;2783;48.730;8.006;2024-03-02T10:49:15;0.20;;;0.20;;
5521;SDS011;2783;48.730;8.006;2024-03-02T10:51:42;0.20;;;0.20;;
5521;SDS011;2783;48.730;8.006;2024-03-02T10:54:07;0.10;;;0.10;;
5521;SDS011;2783;48.730;8.006;2024-03-02T10:56:42;0.13;;;0.13;;
5521;SDS011;2783;48.730;8.006;2024-03-02T10:59:17;0.20;;;0.20;;
5521;SDS011;2783;48.730;8.006;2024-03-02T11:01:53;0.10;;;0.10;;
5521;SDS011;2783;48.730;8.006;2024-03-02T11:04:28;0.20;;;0.20;;
5521;SDS011;2783;48.730;8.006;2024-03-02T11:06:56;0.20;;;0.20;;
5521;SDS011;2783;48.730;8.006;2024-03-02T11:09:32;0.20;;;0.20;;
5521;SDS011;2783;48.730;8.006;2024-03-02T11:12:02;0.20;;;0.20;;
5521;SDS011;2783;48.730;8.006;2024-03-02T11:14:29;0.17;;;0.17;;
5521;SDS011;2783;48.730;8.006;2024-03-02T11:17:00;0.10;;;0.10;;
5521;SDS011;2783;48.730;8.006;2024-03-02T11:19:28;0.20;;;0.20;;
5521;SDS011;2783;48.730;8.006;2024-03-02T11:21:54;0.20;;;0.20;;
5521;SDS011;2783;48.730;8.006;2024-03-02T11:26:46;0.10;;;0.10;;
5521;SDS011;2783;48.730;8.006;2024-03-02T11:32:04;0.10;;;0.10;;
5521;SDS011;2783;48.730;8.006;2024-03-02T11:34:42;0.10;;;0.10;;
5521;SDS011;2783;48.730;8.006;2024-03-02T11:37:20;0.10;;;0.10;;
5521;SDS011;2783;48.730;8.006;2024-03-02T11:39:46;0.10;;;0.10;;
5521;SDS011;2783;48.730;8.006;2024-03-02T11:42:14;0.10;;;0.10;;
5521;SDS011;2783;48.730;8.006;2024-03-02T11:44:47;0.20;;;0.20;;
5521;SDS011;2783;48.730;8.006;2024-03-02T11:47:14;0.20;;;0.20;;
5521;SDS011;2783;48.730;8.006;2024-03-02T11:49:44;0.10;;;0.10;;
5521;SDS011;2783;48.730;8.006;2024-03-02T11:52:14;0.20;;;0.20;;
5521;SDS011;2783;48.730;8.006;2024-03-02T11:54:42;0.20;;;0.20;;
5521;SDS011;2783;48.730;8.006;2024-03-02T11:57:12;0.10;;;0.10;;
5521;SDS011;2783;48.730;8.006;2024-03-02T11:59:39;0.20;;;0.20;;
5521;SDS011;2783;48.730;8.006;2024-03-02T12:02:05;0.15;;;0.15;;
5521;SDS011;2783;48.730;8.006;2024-03-02T12:04:31;0.15;;;0.15;;
5521;SDS011;2783;48.730;8.006;2024-03-02T12:06:57;0.10;;;0.10;;
5521;SDS011;2783;48.730;8.006;2024-03-02T12:09:27;0.10;;;0.10;;
5521;SDS011;2783;48.730;8.006;2024-03-02T12:12:05;0.10;;;0.10;;
5521;SDS011;2783;48.730;8.006;2024-03-02T12:14:33;0.10;;;0.10;;
5521;SDS011;2783;48.730;8.006;2024-03-02T12:16:59;0.10;;;0.10;;
5521;SDS011;2783;48.730;8.006;2024-03-02T12:19:25;0.10;;;0.10;;
5521;SDS011;2783;48.730;8.006;2024-03-02T12:21:52;0.10;;;0.10;;
5521;SDS011;2783;48.730;8.006;2024-03-02T12:24:18;0.10;;;0.10;;
5521;SDS011;2783;48.730;8.006;2024-03-02T12:26:44;0.10;;;0.10;;
5521;SDS011;2783;48.730;8.006;2024-03-02T12:29:10;0.10;;;0.10;;
5521;SDS011;2783;48.730;8.006;2024-03-02T12:31:36;0.10;;;0.10;;
5521;SDS011;2783;48.730;8.006;2024-03-02T12:34:02;0.10;;;0.10;;
5521;SDS011;2783;48.730;8.006;2024-03-02T12:36:29;0.10;;;0.10;;
5521;SDS011;2783;48.730;8.006;2024-03-02T12:38:54;0.10;;;0.10;;
5521;SDS011;2783;48.730;8.006;2024-03-02T12:41:20;0.10;;;0.10;;
5521;SDS011;2783;48.730;8.006;2024-03-02T12:43:46;0.10;;;0.10;;
5521;SDS011;2783;48.730;8.006;2024-03-02T12:46:11;0.10;;;0.10;;
5521;SDS011;2783;48.730;8.006;2024-03-02T12:48:37;0.10;;;0.10;;
5521;SDS011;2783;48.730;8.006;2024-03-02T12:51:05;0.10;;;0.10;;
5521;SDS011;2783;48.730;8.006;2024-03-02T12:53:31;0.10;;;0.10;;
5521;SDS011;2783;48.730;8.006;2024-03-02T12:55:57;0.10;;;0.10;;
5521;SDS011;2783;48.730;8.006;2024-03-02T12:58:23;0.10;;;0.10;;
5521;SDS011;2783;48.730;8.006;2024-03-02T13:00:49;0.10;;;0.10;;
5521;SDS011;2783;48.730;8.006;2024-03-02T13:03:14;0.10;;;0.10;;
5521;SDS011;2783;48.730;8.006;2024-03-02T13:05:47;0.10;;;0.10;;
5521;SDS011;2783;48.730;8.006;2024-03-02T13:08:13;0.10;;;0.10;;
5521;SDS011;2783;48.730;8.006;2024-03-02T13:10:39;0.10;;;0.10;;
5521;SDS011;2783;48.730;8.006;2024-03-02T13:13:06;0.10;;;0.10;;
5521;SDS011;2783;48.730;8.006;2024-03-02T13:15:32;0.10;;;0.10;;
5521;SDS011;2783;48.730;8.006;2024-03-02T13:17:58;0.10;;;0.10;;
5521;SDS011;2783;48.730;8.006;2024-03-02T13:20:29;0.13;;;0.13;;
5521;SDS011;2783;48.730;8.006;2024-03-02T13:22:56;0.20;;;0.20;;
5521;SDS011;2783;48.730;8.006;2024-03-02T13:25:22;0.10;;;0.10;;
5521;SDS011;2783;48.730;8.006;2024-03-02T13:27:47;0.10;;;0.10;;
5521;SDS011;2783;48.730;8.006;2024-03-02T13:30:13;0.17;;;0.17;;
5521;SDS011;2783;48.730;8.006;2024-03-02T13:32:38;0.10;;;0.10;;
5521;SDS011;2783;48.730;8.006;2024-03-02T13:35:04;0.20;;;0.20;;
5521;SDS011;2783;48.730;8.006;2024-03-02T13:37:29;0.10;;;0.10;;
5521;SDS011;2783;48.730;8.006;2024-03-02T13:39:55;0.10;;;0.10;;
5521;SDS011;2783;48.730;8.006;2024-03-02T13:42:20;0.10;;;0.10;;
5521;SDS011;2783;48.730;8.006;2024-03-02T13:44:46;0.10;;;0.10;;
5521;SDS011;2783;48.730;8.006;2024-03-02T13:47:13;0.10;;;0.10;;
5521;SDS011;2783;48.730;8.006;2024-03-02T13:49:38;0.10;;;0.10;;
5521;SDS011;2783;48.730;8.006;2024-03-02T13:52:08;0.10;;;0.10;;
5521;SDS011;2783;48.730;8.006;2024-03-02T13:54:42;0.20;;;0.20;;
5521;SDS011;2783;48.730;8.006;2024-03-02T13:57:08;0.20;;;0.20;;
5521;SDS011;2783;48.730;8.006;2024-03-02T13:59:34;0.10;;;0.10;;
5521;SDS011;2783;48.730;8.006;2024-03-02T14:02:03;0.20;;;0.20;;
5521;SDS011;2783;48.730;8.006;2024-03-02T14:04:30;0.20;;;0.20;;
5521;SDS011;2783;48.730;8.006;2024-03-02T14:06:57;0.20;;;0.20;;
5521;SDS011;2783;48.730;8.006;2024-03-02T14:09:22;0.10;;;0.10;;
5521;SDS011;2783;48.730;8.006;2024-03-02T14:11:49;0.10;;;0.10;;
5521;SDS011;2783;48.730;8.006;2024-03-02T14:14:16;0.20;;;0.20;;
5521;SDS011;2783;48.730;8.006;2024-03-02T14:16:41;0.20;;;0.20;;
5521;SDS011;2783;48.730;8.006;2024-03-02T14:19:07;0.20;;;0.20;;
5521;SDS011;2783;48.730;8.006;2024-03-02T14:21:34;0.20;;;0.20;;
5521;SDS011;2783;48.730;8.006;2024-03-02T14:24:00;0.20;;;0.20;;
5521;SDS011;2783;48.730;8.006;2024-03-02T14:26:26;0.20;;;0.20;;
5521;SDS011;2783;48.730;8.006;2024-03-02T14:28:53;0.20;;;0.20;;
5521;SDS011;2783;48.730;8.006;2024-03-02T14:31:19;0.20;;;0.20;;
5521;SDS011;2783;48.730;8.006;2024-03-02T14:33:45;0.20;;;0.20;;
5521;SDS011;2783;48.730;8.006;2024-03-02T14:36:11;0.20;;;0.20;;
5521;SDS011;2783;48.730;8.006;2024-03-02T14:38:36;0.20;;;0.20;;
5521;SDS011;2783;48.730;8.006;2024-03-02T14:41:02;0.20;;;0.20;;
5521;SDS011;2783;48.730;8.006;2024-03-02T14:43:29;0.20;;;0.20;;
5521;SDS011;2783;48.730;8.006;2024-03-02T14:45:54;0.20;;;0.20;;
5521;SDS011;2783;48.730;8.006;2024-03-02T14:48:20;0.20;;;0.20;;
5521;SDS011;2783;48.730;8.006;2024-03-02T14:50:46;0.20;;;0.20;;
5521;SDS011;2783;48.730;8.006;2024-03-02T14:53:12;0.20;;;0.20;;
5521;SDS011;2783;48.730;8.006;2024-03-02T14:55:37;0.20;;;0.20;;
5521;SDS011;2783;48.730;8.006;2024-03-02T14:58:02;0.20;;;0.20;;
5521;SDS011;2783;48.730;8.006;2024-03-02T15:00:28;0.20;;;0.20;;
5521;SDS011;2783;48.730;8.006;2024-03-02T15:02:53;0.20;;;0.20;;
5521;SDS011;2783;48.730;8.006;2024-03-02T15:05:19;0.20;;;0.20;;
5521;SDS011;2783;48.730;8.006;2024-03-02T15:07:44;0.20;;;0.20;;
5521;SDS011;2783;48.730;8.006;2024-03-02T15:10:10;0.20;;;0.20;;
5521;SDS011;2783;48.730;8.006;2024-03-02T15:12:36;0.20;;;0.20;;
5521;SDS011;2783;48.730;8.006;2024-03-02T15:15:02;0.20;;;0.20;;
5521;SDS011;2783;48.730;8.006;2024-03-02T15:17:27;0.20;;;0.20;;
5521;SDS011;2783;48.730;8.006;2024-03-02T15:19:53;0.20;;;0.20;;